Time;durP1;ratioP1;P1;durP2;ratioP2;P2;SDS_P1;SDS_P2;PMS_P1;PMS_P2;Temp;Humidity;BMP_temperature;BMP_pressure;BME280_temperature;BME280_humidity;BME280_pressure;Samples;Min_cycle;Max_cycle;Signal;HPM_P1;HPM_P2
2021/04/26 00:01:46;;;;;;;8.53;5.87;;;6.50;95.50;;;;;;5036953;28;20175;-72
2021/04/26 00:04:11;;;;;;;8.67;5.30;;;6.60;95.50;;;;;;5048188;28;20221;-71
2021/04/26 00:06:37;;;;;;;7.37;6.20;;;6.60;95.40;;;;;;5037277;28;20813;-71
2021/04/26 00:09:03;;;;;;;7.33;6.00;;;6.60;95.40;;;;;;5050389;28;20217;-71
2021/04/26 00:11:29;;;;;;;9.60;6.60;;;6.40;95.30;;;;;;5051987;28;20162;-70
2021/04/26 00:13:55;;;;;;;9.40;6.03;;;6.40;95.40;;;;;;5047640;28;20786;-70
2021/04/26 00:16:20;;;;;;;8.67;5.47;;;6.30;95.70;;;;;;5049003;28;20177;-71
2021/04/26 00:18:46;;;;;;;11.50;5.47;;;6.30;95.80;;;;;;5054449;28;20209;-71
2021/04/26 00:21:11;;;;;;;6.53;4.97;;;6.40;96.00;;;;;;5054184;28;20555;-72
2021/04/26 00:23:37;;;;;;;8.10;4.87;;;6.40;95.90;;;;;;5063077;28;20182;-70
2021/04/26 00:26:02;;;;;;;5.27;4.70;;;6.50;95.80;;;;;;5064171;28;20237;-71
2021/04/26 00:28:28;;;;;;;7.33;5.23;;;6.50;95.60;;;;;;5057688;28;20593;-71
2021/04/26 00:30:53;;;;;;;7.40;5.47;;;6.50;95.50;;;;;;5049000;28;20214;-71
2021/04/26 00:33:19;;;;;;;7.97;5.63;;;6.50;95.40;;;;;;5050748;28;20221;-71
2021/04/26 00:35:44;;;;;;;8.00;5.20;;;6.50;95.40;;;;;;5051860;28;20198;-71
2021/04/26 00:38:10;;;;;;;9.13;6.30;;;6.60;95.40;;;;;;5054984;28;20182;-71
2021/04/26 00:40:35;;;;;;;8.50;6.10;;;6.60;95.40;;;;;;5051431;28;20300;-71
2021/04/26 00:43:01;;;;;;;7.20;5.63;;;6.60;95.40;;;;;;5052769;28;20193;-71
2021/04/26 00:45:27;;;;;;;5.97;5.37;;;6.60;95.30;;;;;;5046793;28;20190;-71
2021/04/26 00:47:53;;;;;;;8.80;5.70;;;6.60;95.20;;;;;;5068060;28;20202;-71
2021/04/26 00:50:25;;;;;;;9.03;5.43;;;6.50;95.10;;;;;;5075192;28;20217;-71
2021/04/26 00:52:51;;;;;;;7.00;5.27;;;6.40;94.90;;;;;;5060203;28;20969;-71
2021/04/26 00:55:20;;;;;;;9.83;5.60;;;6.50;94.90;;;;;;5048109;28;20470;-71
2021/04/26 00:57:45;;;;;;;6.47;5.87;;;6.40;94.70;;;;;;5055705;28;20416;-71
2021/04/26 01:00:12;;;;;;;7.97;5.30;;;6.40;94.80;;;;;;5056751;28;20498;-72
2021/04/26 01:02:38;;;;;;;7.00;5.33;;;6.40;95.00;;;;;;5056411;28;20177;-71
2021/04/26 01:05:07;;;;;;;7.00;5.97;;;6.40;95.10;;;;;;5055566;28;20412;-71
2021/04/26 01:07:35;;;;;;;7.60;6.00;;;6.40;95.30;;;;;;5054866;28;20413;-72
2021/04/26 01:10:03;;;;;;;8.17;6.37;;;6.40;95.40;;;;;;5056064;28;20872;-71
2021/04/26 01:12:47;;;;;;;7.13;6.10;;;6.40;95.30;;;;;;5055028;28;20448;-71
2021/04/26 01:15:15;;;;;;;8.53;5.50;;;6.40;95.30;;;;;;5054966;28;20761;-71
2021/04/26 01:17:50;;;;;;;9.10;5.30;;;6.30;95.20;;;;;;5054787;28;20458;-70
2021/04/26 01:20:41;;;;;;;10.50;5.83;;;6.30;95.20;;;;;;5056550;28;20473;-71
2021/04/26 01:23:49;;;;;;;7.70;5.80;;;6.30;95.20;;;;;;5055142;28;20443;-71
2021/04/26 01:26:28;;;;;;;5.47;4.97;;;6.30;95.30;;;;;;5054669;28;20447;-70
2021/04/26 01:29:08;;;;;;;8.60;5.40;;;6.20;95.30;;;;;;5054590;28;20436;-71
2021/04/26 01:31:44;;;;;;;7.23;5.10;;;6.30;95.30;;;;;;5056041;28;20444;-70
2021/04/26 01:34:10;;;;;;;6.00;5.20;;;6.20;95.30;;;;;;5054886;28;20452;-71
2021/04/26 01:36:37;;;;;;;6.30;5.40;;;6.20;95.40;;;;;;5055468;28;20484;-71
2021/04/26 01:39:04;;;;;;;7.57;5.73;;;6.20;95.40;;;;;;5054594;28;20455;-71
2021/04/26 01:41:30;;;;;;;10.87;5.97;;;6.20;95.50;;;;;;5056130;28;20401;-71
2021/04/26 01:43:57;;;;;;;7.70;5.13;;;6.20;95.50;;;;;;5058563;28;20448;-71
2021/04/26 01:46:25;;;;;;;9.20;5.63;;;6.20;95.50;;;;;;5059094;28;20503;-71
2021/04/26 01:48:53;;;;;;;8.57;5.27;;;6.10;95.50;;;;;;5054123;28;20429;-71
2021/04/26 01:51:20;;;;;;;6.30;5.50;;;6.10;95.60;;;;;;5053214;28;20881;-71
2021/04/26 01:53:47;;;;;;;6.43;5.23;;;6.00;95.50;;;;;;5071838;28;20444;-71
2021/04/26 01:56:14;;;;;;;9.00;5.20;;;6.00;95.70;;;;;;5067450;28;20409;-71
2021/04/26 01:58:46;;;;;;;6.60;4.97;;;6.00;95.80;;;;;;5053930;28;20940;-71
2021/04/26 02:01:19;;;;;;;6.47;5.73;;;5.90;95.90;;;;;;5054552;28;20389;-71
2021/04/26 02:03:53;;;;;;;9.43;5.77;;;5.90;95.90;;;;;;5055724;28;20428;-70
2021/04/26 02:06:21;;;;;;;8.03;5.93;;;5.90;95.90;;;;;;5055034;28;20505;-71
2021/04/26 02:08:47;;;;;;;5.17;4.77;;;5.90;95.90;;;;;;5054024;28;20471;-72
2021/04/26 02:11:13;;;;;;;6.80;5.37;;;5.90;95.90;;;;;;5054348;28;20448;-72
2021/04/26 02:13:40;;;;;;;5.87;4.90;;;5.90;95.90;;;;;;5054952;28;20292;-72
2021/04/26 02:16:06;;;;;;;9.67;5.90;;;5.90;95.90;;;;;;5054066;28;20421;-71
2021/04/26 02:18:32;;;;;;;7.50;5.10;;;5.90;95.90;;;;;;5054042;28;20416;-71
2021/04/26 02:20:58;;;;;;;7.50;5.27;;;5.70;96.00;;;;;;5054138;28;20417;-71
2021/04/26 02:23:24;;;;;;;7.20;5.27;;;5.70;96.20;;;;;;5054511;28;20415;-71
2021/04/26 02:25:50;;;;;;;15.90;7.10;;;5.60;96.30;;;;;;5053925;28;20261;-71
2021/04/26 02:28:16;;;;;;;9.20;5.17;;;5.60;96.40;;;;;;5053477;28;20816;-71
2021/04/26 02:30:41;;;;;;;7.87;5.97;;;5.60;96.40;;;;;;5053875;28;20196;-71
2021/04/26 02:33:16;;;;;;;8.67;5.93;;;5.60;96.30;;;;;;5052468;28;20487;-72
2021/04/26 02:35:54;;;;;;;5.80;4.90;;;5.60;96.30;;;;;;5054600;28;20285;-71
2021/04/26 02:38:32;;;;;;;7.30;4.60;;;5.60;96.20;;;;;;5053767;28;20411;-71
2021/04/26 02:41:07;;;;;;;5.50;4.90;;;5.60;96.30;;;;;;5053523;28;20384;-71
2021/04/26 02:43:39;;;;;;;8.90;4.90;;;5.50;96.40;;;;;;5053664;28;20404;-71
2021/04/26 02:46:06;;;;;;;7.40;5.90;;;5.50;96.30;;;;;;5054298;28;20436;-71
2021/04/26 02:48:32;;;;;;;5.70;4.93;;;5.50;96.40;;;;;;5052904;28;20414;-71
2021/04/26 02:50:59;;;;;;;7.20;5.60;;;5.50;96.40;;;;;;5053167;28;20411;-71
2021/04/26 02:53:28;;;;;;;8.03;5.97;;;5.40;96.60;;;;;;5052144;28;20554;-72
2021/04/26 02:55:59;;;;;;;6.60;5.50;;;5.40;96.80;;;;;;5054679;28;20421;-71
2021/04/26 02:58:25;;;;;;;9.60;5.30;;;5.40;96.90;;;;;;5053184;28;20407;-71
2021/04/26 03:00:51;;;;;;;6.03;5.13;;;5.40;97.00;;;;;;5052837;28;20420;-71
2021/04/26 03:03:18;;;;;;;6.53;5.80;;;5.40;97.00;;;;;;5053477;28;20409;-71
2021/04/26 03:05:46;;;;;;;10.37;5.60;;;5.40;96.80;;;;;;5053554;28;20447;-71
2021/04/26 03:08:12;;;;;;;8.70;6.07;;;5.40;96.80;;;;;;5054066;28;20435;-71
2021/04/26 03:10:37;;;;;;;8.17;5.97;;;5.40;96.70;;;;;;5052316;28;20478;-71
2021/04/26 03:13:05;;;;;;;6.80;5.80;;;5.30;96.70;;;;;;5052771;28;20202;-71
2021/04/26 03:15:31;;;;;;;7.80;5.57;;;5.30;96.80;;;;;;5053282;28;20178;-71
2021/04/26 03:17:59;;;;;;;9.30;6.17;;;5.30;96.80;;;;;;5056966;28;20429;-71
2021/04/26 03:20:31;;;;;;;8.50;6.27;;;5.30;96.80;;;;;;5057613;28;20439;-71
2021/04/26 03:22:58;;;;;;;8.73;5.77;;;5.20;96.90;;;;;;5056766;28;20494;-71
2021/04/26 03:25:23;;;;;;;7.67;6.07;;;5.20;96.90;;;;;;5055959;28;20408;-71
2021/04/26 03:27:53;;;;;;;10.87;5.50;;;5.20;96.90;;;;;;5060634;28;20932;-71
2021/04/26 03:30:21;;;;;;;8.17;6.10;;;5.10;97.00;;;;;;5076961;28;20216;-71
2021/04/26 03:32:48;;;;;;;9.03;6.33;;;5.10;97.00;;;;;;5076898;28;20455;-71
2021/04/26 03:35:16;;;;;;;6.23;5.13;;;5.10;96.90;;;;;;5076858;28;20407;-71
2021/04/26 03:37:44;;;;;;;6.07;5.10;;;5.10;96.80;;;;;;5076523;28;20768;-71
2021/04/26 03:40:11;;;;;;;5.50;5.00;;;5.10;96.80;;;;;;5075421;28;20983;-71
2021/04/26 03:42:36;;;;;;;7.40;5.50;;;5.10;96.80;;;;;;5062654;28;20500;-71
2021/04/26 03:45:03;;;;;;;7.27;5.60;;;5.00;96.80;;;;;;5056671;28;20428;-72
2021/04/26 03:47:29;;;;;;;6.70;5.50;;;5.00;96.80;;;;;;5056338;28;20544;-71
2021/04/26 03:49:54;;;;;;;6.93;5.60;;;5.00;96.80;;;;;;5057937;28;20450;-72
2021/04/26 03:52:20;;;;;;;9.70;5.40;;;5.00;96.90;;;;;;5056786;28;20178;-70
2021/04/26 03:54:45;;;;;;;8.53;5.63;;;5.00;97.00;;;;;;5056723;28;20172;-70
2021/04/26 03:57:11;;;;;;;7.80;5.77;;;5.00;97.10;;;;;;5051663;28;20708;-71
2021/04/26 03:59:36;;;;;;;5.90;4.80;;;4.90;97.10;;;;;;5053137;28;20220;-71
2021/04/26 04:02:02;;;;;;;5.90;5.30;;;4.90;97.20;;;;;;5053452;28;20687;-71
2021/04/26 04:04:27;;;;;;;6.27;5.20;;;5.00;97.20;;;;;;5046027;28;20204;-71
2021/04/26 04:06:53;;;;;;;5.20;4.70;;;5.00;97.10;;;;;;5048109;28;20215;-71
2021/04/26 04:09:18;;;;;;;10.07;5.40;;;5.00;97.10;;;;;;5048332;28;20300;-71
2021/04/26 04:11:44;;;;;;;7.03;5.40;;;4.90;97.10;;;;;;5054430;28;20196;-71
2021/04/26 04:14:10;;;;;;;10.17;5.53;;;4.90;97.30;;;;;;5054586;28;20199;-72
2021/04/26 04:16:36;;;;;;;7.10;5.70;;;4.80;97.30;;;;;;5046994;28;20218;-71
2021/04/26 04:19:02;;;;;;;10.47;5.40;;;4.80;97.30;;;;;;5036052;28;20964;-71
2021/04/26 04:21:28;;;;;;;9.43;5.90;;;4.80;97.40;;;;;;5046353;28;20433;-71
2021/04/26 04:23:54;;;;;;;7.30;5.57;;;4.80;97.30;;;;;;5057311;28;20411;-71
2021/04/26 04:26:20;;;;;;;5.97;5.37;;;4.90;97.30;;;;;;5056886;28;20419;-71
2021/04/26 04:28:46;;;;;;;11.37;6.10;;;4.90;97.30;;;;;;5055221;28;20558;-70
2021/04/26 04:31:12;;;;;;;9.73;6.27;;;4.90;97.30;;;;;;5051052;28;20465;-71
2021/04/26 04:33:37;;;;;;;8.40;5.67;;;4.90;97.40;;;;;;5045172;28;20210;-71
2021/04/26 04:36:03;;;;;;;8.20;6.23;;;4.90;97.40;;;;;;5047133;28;20923;-71
2021/04/26 04:38:29;;;;;;;7.50;5.10;;;4.90;97.40;;;;;;5056030;28;20604;-71
2021/04/26 04:40:55;;;;;;;7.07;5.60;;;4.90;97.40;;;;;;5055720;28;20231;-73
2021/04/26 04:43:21;;;;;;;10.47;6.27;;;4.90;97.30;;;;;;5058133;28;20170;-72
2021/04/26 04:45:47;;;;;;;7.77;6.67;;;4.80;97.30;;;;;;5056087;28;20429;-72
2021/04/26 04:48:13;;;;;;;12.30;6.47;;;4.80;97.40;;;;;;5063292;28;20427;-72
2021/04/26 04:50:39;;;;;;;13.93;6.40;;;4.70;97.40;;;;;;5045298;28;20469;-72
2021/04/26 04:53:04;;;;;;;7.43;5.80;;;4.80;97.50;;;;;;5077278;28;20199;-72
2021/04/26 04:55:30;;;;;;;6.17;5.60;;;4.80;97.40;;;;;;5085714;28;20191;-72
2021/04/26 04:57:55;;;;;;;8.40;5.73;;;4.80;97.40;;;;;;5084967;28;20176;-72
2021/04/26 05:00:21;;;;;;;12.40;6.10;;;4.80;97.30;;;;;;5079996;28;20294;-71
2021/04/26 05:02:47;;;;;;;8.70;5.97;;;4.80;97.30;;;;;;5076031;28;20268;-72
2021/04/26 05:05:12;;;;;;;9.37;5.90;;;4.80;97.20;;;;;;5059222;28;20570;-71
2021/04/26 05:07:38;;;;;;;10.60;5.57;;;4.90;97.10;;;;;;5055677;28;20693;-71
2021/04/26 05:10:05;;;;;;;8.50;5.67;;;4.90;97.00;;;;;;5055979;28;20256;-72
2021/04/26 05:12:31;;;;;;;10.73;6.90;;;4.90;96.90;;;;;;5055870;28;20421;-72
2021/04/26 05:14:57;;;;;;;9.17;5.93;;;4.90;96.80;;;;;;5054139;28;20503;-72
2021/04/26 05:17:22;;;;;;;8.10;6.17;;;5.00;96.80;;;;;;5056134;28;20172;-72
2021/04/26 05:19:48;;;;;;;8.10;6.60;;;5.00;96.70;;;;;;5055596;28;20272;-72
2021/04/26 05:22:14;;;;;;;7.50;6.23;;;5.00;96.60;;;;;;5070684;28;20189;-72
2021/04/26 05:24:40;;;;;;;8.33;6.03;;;5.10;96.60;;;;;;5073898;28;20175;-71
2021/04/26 05:27:07;;;;;;;8.17;5.90;;;5.10;96.50;;;;;;5055044;28;20247;-72
2021/04/26 05:29:33;;;;;;;7.20;6.33;;;5.10;96.50;;;;;;5055357;28;20478;-72
2021/04/26 05:31:58;;;;;;;9.40;7.80;;;5.20;96.40;;;;;;5055359;28;20869;-72
2021/04/26 05:34:24;;;;;;;15.50;10.47;;;5.20;96.40;;;;;;5055180;28;20334;-71
2021/04/26 05:36:49;;;;;;;10.93;7.43;;;5.30;96.30;;;;;;5055096;28;20431;-72
2021/04/26 05:39:15;;;;;;;11.10;6.60;;;5.40;96.30;;;;;;5054120;28;20374;-71
2021/04/26 05:41:41;;;;;;;11.23;7.10;;;5.50;96.10;;;;;;5054016;28;20233;-71
2021/04/26 05:44:06;;;;;;;17.97;6.87;;;5.50;95.80;;;;;;5053991;28;20184;-72
2021/04/26 05:46:32;;;;;;;8.80;6.73;;;5.50;95.70;;;;;;5053881;28;20192;-72
2021/04/26 05:48:57;;;;;;;7.70;6.60;;;5.60;95.90;;;;;;5052967;28;20206;-71
2021/04/26 05:51:23;;;;;;;11.27;7.10;;;5.50;95.60;;;;;;5054740;28;20649;-70
2021/04/26 05:53:49;;;;;;;8.80;6.83;;;5.60;95.70;;;;;;5054196;28;20201;-72
2021/04/26 05:56:14;;;;;;;11.30;6.87;;;5.60;95.60;;;;;;5068650;28;20184;-72
2021/04/26 05:58:40;;;;;;;10.17;6.13;;;5.60;95.50;;;;;;5074413;28;20196;-72
2021/04/26 06:01:06;;;;;;;6.83;6.17;;;5.70;95.40;;;;;;5074126;28;20166;-72
2021/04/26 06:03:31;;;;;;;8.00;6.87;;;5.70;95.20;;;;;;5074581;28;20178;-72
2021/04/26 06:05:57;;;;;;;13.40;9.63;;;5.70;95.10;;;;;;5075154;28;20169;-71
2021/04/26 06:08:24;;;;;;;9.67;7.93;;;5.70;94.90;;;;;;5074501;28;20169;-71
2021/04/26 06:10:49;;;;;;;8.33;6.80;;;5.80;94.80;;;;;;5075655;28;20177;-71
2021/04/26 06:13:15;;;;;;;12.17;8.30;;;5.80;94.70;;;;;;5074766;28;20456;-71
2021/04/26 06:15:41;;;;;;;8.27;7.00;;;5.90;94.60;;;;;;5074175;28;20200;-72
2021/04/26 06:18:15;;;;;;;9.80;8.03;;;6.00;94.60;;;;;;5074453;28;20582;-71
2021/04/26 06:20:42;;;;;;;10.60;7.43;;;6.00;94.50;;;;;;5076918;28;20259;-72
2021/04/26 06:23:08;;;;;;;14.40;7.67;;;6.10;94.40;;;;;;5079743;28;20408;-72
2021/04/26 06:25:35;;;;;;;10.57;7.90;;;6.20;94.40;;;;;;5072802;28;20696;-72
2021/04/26 06:28:01;;;;;;;8.50;7.27;;;6.30;94.30;;;;;;5062045;28;20416;-72
2021/04/26 06:30:27;;;;;;;11.93;7.07;;;6.30;94.20;;;;;;5060293;28;20794;-71
2021/04/26 06:32:52;;;;;;;13.97;7.93;;;6.40;94.10;;;;;;5056434;28;20214;-72
2021/04/26 06:35:18;;;;;;;8.93;7.40;;;6.40;93.90;;;;;;5053076;28;20512;-71
2021/04/26 06:37:44;;;;;;;12.13;7.13;;;6.50;93.80;;;;;;5054065;28;20173;-71
2021/04/26 06:40:19;;;;;;;16.40;7.83;;;6.60;93.70;;;;;;5052909;28;20193;-71
2021/04/26 06:42:45;;;;;;;7.23;6.47;;;6.70;93.70;;;;;;5055283;28;20624;-71
2021/04/26 06:45:11;;;;;;;8.50;6.70;;;6.70;93.30;;;;;;5054492;28;20451;-72
2021/04/26 06:47:37;;;;;;;6.87;6.10;;;6.80;93.00;;;;;;5052299;28;20205;-72
2021/04/26 06:50:04;;;;;;;7.33;6.40;;;6.90;92.90;;;;;;5053824;28;20437;-71
2021/04/26 06:52:30;;;;;;;9.00;6.13;;;7.00;92.50;;;;;;5053223;28;20412;-72
2021/04/26 06:54:55;;;;;;;8.97;6.43;;;7.10;92.40;;;;;;5054772;28;20450;-71
2021/04/26 06:57:21;;;;;;;7.83;6.13;;;7.20;91.70;;;;;;5072196;28;20193;-71
2021/04/26 06:59:46;;;;;;;12.40;7.13;;;7.30;91.40;;;;;;5071592;28;20280;-71
2021/04/26 07:02:12;;;;;;;10.50;6.60;;;7.40;91.20;;;;;;5073764;28;20177;-71
2021/04/26 07:04:38;;;;;;;8.60;6.60;;;7.50;90.50;;;;;;5073200;28;20627;-71
2021/04/26 07:07:04;;;;;;;6.17;3.57;;;7.60;90.50;;;;;;5072916;28;20607;-72
2021/04/26 07:09:29;;;;;;;6.00;3.30;;;7.80;88.50;;;;;;5073270;28;20281;-71
2021/04/26 07:11:57;;;;;;;3.70;2.70;;;7.90;83.20;;;;;;5073057;28;20502;-71
2021/04/26 07:14:23;;;;;;;2.00;1.80;;;8.00;81.20;;;;;;5073450;28;20631;-70
2021/04/26 07:16:49;;;;;;;2.73;2.40;;;8.20;78.20;;;;;;5073164;28;20428;-70
2021/04/26 07:19:15;;;;;;;3.40;1.77;;;8.30;76.30;;;;;;5072926;28;20424;-70
2021/04/26 07:21:40;;;;;;;2.33;2.13;;;8.40;72.60;;;;;;5073450;28;20457;-69
2021/04/26 07:24:07;;;;;;;3.73;1.97;;;8.50;71.90;;;;;;5071009;28;20189;-70
2021/04/26 07:26:32;;;;;;;4.13;2.17;;;8.60;71.70;;;;;;5071929;28;20651;-70
2021/04/26 07:28:58;;;;;;;8.23;1.70;;;8.80;70.60;;;;;;5072621;28;20447;-70
2021/04/26 07:31:23;;;;;;;2.77;1.50;;;8.90;70.40;;;;;;5073192;28;20294;-70
2021/04/26 07:33:49;;;;;;;4.17;2.33;;;9.00;70.20;;;;;;5073329;28;20204;-70
2021/04/26 07:36:15;;;;;;;3.20;2.90;;;9.10;72.10;;;;;;5073206;28;20638;-70
2021/04/26 07:38:41;;;;;;;4.23;2.33;;;9.30;70.90;;;;;;5071647;28;20626;-71
2021/04/26 07:41:06;;;;;;;3.00;2.10;;;9.30;66.90;;;;;;5072935;28;20177;-71
2021/04/26 07:43:32;;;;;;;2.53;2.13;;;9.30;66.30;;;;;;5073169;28;20208;-72
2021/04/26 07:45:57;;;;;;;3.00;2.30;;;9.40;66.10;;;;;;5074081;28;20571;-71
2021/04/26 07:48:23;;;;;;;2.33;1.90;;;9.40;64.30;;;;;;5074443;28;20201;-71
2021/04/26 07:50:49;;;;;;;2.90;1.80;;;9.60;64.70;;;;;;5073966;28;20185;-71
2021/04/26 07:53:14;;;;;;;2.20;2.00;;;9.70;64.50;;;;;;5074229;28;20197;-71
2021/04/26 07:55:40;;;;;;;3.03;2.73;;;9.80;64.40;;;;;;5073655;28;20228;-71
2021/04/26 07:58:06;;;;;;;2.23;2.03;;;9.90;64.10;;;;;;5072503;28;20535;-71
2021/04/26 08:00:32;;;;;;;3.20;2.70;;;10.00;61.90;;;;;;5073596;28;20193;-71
2021/04/26 08:02:58;;;;;;;2.10;2.00;;;10.00;60.70;;;;;;5073657;28;20176;-71
2021/04/26 08:05:23;;;;;;;5.33;2.47;;;10.00;60.70;;;;;;5076305;28;20757;-72
2021/04/26 08:07:49;;;;;;;2.27;2.07;;;10.10;60.70;;;;;;5076106;28;20180;-71
2021/04/26 08:10:15;;;;;;;3.07;2.37;;;10.10;59.90;;;;;;5076040;28;20196;-72
2021/04/26 08:12:41;;;;;;;2.23;2.00;;;10.10;59.20;;;;;;5076204;28;20205;-71
2021/04/26 08:15:09;;;;;;;3.40;2.50;;;10.10;59.50;;;;;;5076823;28;20499;-71
2021/04/26 08:17:34;;;;;;;3.13;2.40;;;10.10;59.60;;;;;;5077033;28;20405;-71
2021/04/26 08:20:00;;;;;;;37.83;6.17;;;10.20;59.30;;;;;;5077413;28;20477;-71
2021/04/26 08:22:26;;;;;;;16.90;3.33;;;10.30;59.20;;;;;;5077774;28;20683;-71
2021/04/26 08:24:52;;;;;;;7.90;2.30;;;10.40;59.40;;;;;;5077199;28;20172;-73
2021/04/26 08:27:17;;;;;;;2.83;2.17;;;10.60;59.10;;;;;;5076267;28;20433;-71
2021/04/26 08:29:43;;;;;;;5.23;2.53;;;10.80;58.80;;;;;;5075857;28;20217;-71
2021/04/26 08:32:08;;;;;;;3.17;2.87;;;10.90;58.30;;;;;;5075881;28;20172;-71
2021/04/26 08:34:34;;;;;;;3.73;2.50;;;11.00;58.00;;;;;;5075882;28;20299;-71
2021/04/26 08:36:59;;;;;;;19.17;5.30;;;11.00;57.30;;;;;;5077097;28;20173;-71
2021/04/26 08:39:25;;;;;;;7.23;2.40;;;11.10;57.30;;;;;;5078410;28;20233;-71
2021/04/26 08:41:51;;;;;;;2.87;2.50;;;11.20;57.20;;;;;;5080831;28;20170;-71
2021/04/26 08:44:17;;;;;;;3.10;2.40;;;11.10;56.00;;;;;;5079697;28;20181;-71
2021/04/26 08:46:44;;;;;;;3.07;2.37;;;11.10;55.90;;;;;;5076303;28;20419;-71
2021/04/26 08:49:11;;;;;;;4.57;2.80;;;11.20;56.30;;;;;;5075881;28;20211;-71
2021/04/26 08:51:38;;;;;;;2.93;2.50;;;11.40;56.30;;;;;;5076444;28;20546;-70
2021/04/26 08:54:05;;;;;;;3.10;2.30;;;11.60;56.20;;;;;;5078836;28;20456;-69
2021/04/26 08:56:31;;;;;;;3.07;2.60;;;11.70;55.90;;;;;;5067405;28;20515;-71
2021/04/26 08:58:56;;;;;;;3.43;2.33;;;11.80;55.20;;;;;;5065370;28;20432;-70
2021/04/26 09:01:22;;;;;;;2.60;2.40;;;11.90;55.00;;;;;;5056303;28;20174;-72
2021/04/26 09:03:48;;;;;;;2.50;2.30;;;12.00;54.70;;;;;;5055938;28;20170;-71
2021/04/26 09:06:14;;;;;;;4.67;2.67;;;12.10;54.70;;;;;;5055694;28;20512;-71
2021/04/26 09:08:49;;;;;;;2.73;2.53;;;12.10;54.20;;;;;;5055277;28;20478;-70
2021/04/26 09:11:15;;;;;;;4.23;1.90;;;12.20;53.60;;;;;;5055542;28;20420;-71
2021/04/26 09:13:42;;;;;;;8.17;2.80;;;12.30;53.60;;;;;;5055340;28;20486;-71
2021/04/26 09:16:27;;;;;;;2.93;2.60;;;12.20;52.70;;;;;;5054792;28;20454;-71
2021/04/26 09:19:00;;;;;;;2.37;2.17;;;11.90;52.40;;;;;;5055134;28;20801;-70
2021/04/26 09:21:30;;;;;;;3.00;2.40;;;12.10;53.10;;;;;;5055799;28;20783;-71
2021/04/26 09:24:13;;;;;;;2.67;2.47;;;12.10;52.70;;;;;;5055303;28;20424;-71
2021/04/26 09:26:40;;;;;;;2.83;2.63;;;12.30;53.10;;;;;;5054685;28;20408;-71
2021/04/26 09:29:23;;;;;;;5.77;2.90;;;12.40;52.70;;;;;;5054794;28;20505;-71
2021/04/26 09:32:03;;;;;;;3.10;2.77;;;12.50;52.80;;;;;;5055398;28;20445;-71
2021/04/26 09:34:39;;;;;;;3.30;2.33;;;12.60;53.00;;;;;;5054405;28;20593;-72
2021/04/26 09:37:16;;;;;;;2.73;2.40;;;12.70;52.90;;;;;;5054525;28;20870;-71
2021/04/26 09:40:00;;;;;;;3.23;2.50;;;12.70;52.20;;;;;;5054561;28;20412;-71
2021/04/26 09:42:49;;;;;;;3.03;2.73;;;12.90;52.10;;;;;;5054876;28;20500;-71
2021/04/26 09:45:19;;;;;;;2.57;2.37;;;12.90;51.90;;;;;;5054980;28;20405;-70
2021/04/26 09:47:45;;;;;;;2.50;2.20;;;13.10;52.20;;;;;;5053261;28;20442;-71
2021/04/26 09:50:11;;;;;;;3.00;2.30;;;13.10;51.80;;;;;;5054925;28;20516;-72
2021/04/26 09:52:37;;;;;;;6.10;2.63;;;13.20;51.50;;;;;;5054609;28;20448;-72
2021/04/26 09:55:02;;;;;;;3.60;3.10;;;13.20;51.30;;;;;;5057462;28;20530;-71
2021/04/26 09:57:28;;;;;;;4.23;2.70;;;13.40;51.40;;;;;;5073142;28;20193;-71
2021/04/26 09:59:55;;;;;;;2.80;2.60;;;13.40;50.30;;;;;;5074908;28;20558;-71
2021/04/26 10:02:21;;;;;;;3.17;2.90;;;13.00;49.60;;;;;;5074633;28;20408;-71
2021/04/26 10:04:47;;;;;;;3.20;2.60;;;12.90;49.90;;;;;;5074126;28;20418;-72
2021/04/26 10:07:13;;;;;;;3.10;2.80;;;12.90;50.00;;;;;;5074184;28;20772;-71
2021/04/26 10:09:41;;;;;;;3.87;3.03;;;13.10;49.90;;;;;;5074311;28;20465;-71
2021/04/26 10:12:10;;;;;;;2.70;2.50;;;13.10;49.20;;;;;;5074193;28;20165;-71
2021/04/26 10:14:41;;;;;;;2.60;2.40;;;13.00;49.40;;;;;;5073930;28;20529;-71
2021/04/26 10:17:13;;;;;;;4.00;2.60;;;13.20;49.70;;;;;;5073837;28;20437;-71
2021/04/26 10:19:45;;;;;;;3.23;2.93;;;13.00;47.80;;;;;;5074443;28;20501;-71
2021/04/26 10:22:11;;;;;;;4.35;3.30;;;12.80;48.10;;;;;;5073175;28;20452;-71
2021/04/26 10:24:52;;;;;;;5.83;2.37;;;12.90;48.60;;;;;;5074076;28;20170;-70
2021/04/26 10:27:38;;;;;;;8.87;3.27;;;13.00;48.50;;;;;;5073098;28;20498;-72
2021/04/26 10:30:11;;;;;;;2.90;2.60;;;13.00;48.20;;;;;;5073229;28;20497;-72
2021/04/26 10:32:57;;;;;;;3.13;2.90;;;13.10;48.50;;;;;;5073551;28;20842;-72
2021/04/26 10:35:41;;;;;;;6.40;3.87;;;13.00;48.10;;;;;;5073696;28;20817;-72
2021/04/26 10:38:46;;;;;;;3.53;2.73;;;13.10;48.70;;;;;;5073494;28;20404;-72
2021/04/26 10:41:47;;;;;;;3.27;2.83;;;12.90;48.60;;;;;;5074023;28;20414;-71
2021/04/26 10:44:40;;;;;;;3.20;2.90;;;13.10;49.20;;;;;;5074184;28;20415;-71
2021/04/26 10:47:23;;;;;;;3.70;3.40;;;13.10;48.40;;;;;;5073672;28;20408;-71
2021/04/26 10:50:14;;;;;;;4.93;3.33;;;13.10;48.30;;;;;;5073818;28;20434;-71
2021/04/26 10:52:42;;;;;;;3.60;3.30;;;13.00;48.10;;;;;;5073392;28;20469;-71
2021/04/26 10:55:34;;;;;;;4.93;3.17;;;13.10;48.70;;;;;;5068471;28;20413;-71
2021/04/26 10:58:02;;;;;;;4.83;3.23;;;13.20;49.30;;;;;;5052818;28;20421;-71
2021/04/26 11:01:17;;;;;;;8.40;3.20;;;13.20;48.10;;;;;;5053950;28;20508;-71
2021/04/26 11:10:28;;;;;;;4.23;3.20;;;13.30;48.60;;;;;;5052123;28;20907;-71
2021/04/26 11:12:55;;;;;;;4.00;3.60;;;13.40;47.80;;;;;;5053619;28;20953;-71
2021/04/26 11:15:23;;;;;;;3.40;3.10;;;13.50;48.00;;;;;;5053423;28;20782;-70
2021/04/26 11:17:50;;;;;;;3.50;3.20;;;13.20;46.30;;;;;;5052073;28;20433;-70
2021/04/26 11:20:24;;;;;;;6.83;3.03;;;12.90;46.60;;;;;;5052326;28;20471;-71
2021/04/26 11:22:56;;;;;;;3.50;3.20;;;13.00;47.30;;;;;;5053532;28;20869;-71
2021/04/26 11:25:40;;;;;;;3.93;3.20;;;13.00;47.10;;;;;;5052967;28;20480;-71
2021/04/26 11:28:09;;;;;;;4.33;3.50;;;13.10;47.90;;;;;;5053655;28;20419;-71
2021/04/26 11:30:40;;;;;;;3.50;3.20;;;13.30;47.90;;;;;;5053954;28;20506;-70
2021/04/26 11:33:13;;;;;;;3.80;3.00;;;13.10;46.80;;;;;;5053809;28;20502;-71
2021/04/26 11:36:08;;;;;;;4.27;2.90;;;13.10;46.80;;;;;;5053332;28;20425;-71
2021/04/26 11:38:35;;;;;;;3.67;2.97;;;13.00;46.40;;;;;;5054449;28;20535;-71
2021/04/26 11:41:01;;;;;;;4.50;3.27;;;13.00;45.90;;;;;;5055970;28;20450;-71
2021/04/26 11:43:27;;;;;;;3.83;3.40;;;12.90;45.50;;;;;;5057300;28;20800;-72
2021/04/26 11:45:52;;;;;;;3.90;3.50;;;12.90;45.20;;;;;;5057017;28;20263;-71
2021/04/26 11:48:25;;;;;;;4.23;3.70;;;12.90;44.90;;;;;;5056838;28;20170;-71
2021/04/26 11:50:50;;;;;;;5.67;3.47;;;12.70;45.60;;;;;;5057354;28;20249;-71
2021/04/26 11:53:27;;;;;;;3.90;3.33;;;12.60;45.80;;;;;;5058406;28;20502;-71
2021/04/26 11:55:52;;;;;;;5.73;3.80;;;12.60;45.70;;;;;;5068216;28;20204;-71
2021/04/26 11:58:27;;;;;;;4.03;3.50;;;12.70;46.00;;;;;;5076383;28;20416;-71
2021/04/26 12:01:05;;;;;;;4.73;3.33;;;12.70;45.80;;;;;;5077270;28;20164;-71
2021/04/26 12:03:31;;;;;;;3.20;3.00;;;12.70;44.60;;;;;;5077458;28;20705;-71
2021/04/26 12:06:00;;;;;;;3.37;3.00;;;12.80;45.10;;;;;;5077167;28;20418;-71
2021/04/26 12:08:42;;;;;;;4.73;3.10;;;13.00;45.60;;;;;;5075982;28;20642;-70
2021/04/26 12:11:19;;;;;;;4.60;3.30;;;13.00;44.70;;;;;;5076353;28;20446;-71
2021/04/26 12:13:45;;;;;;;4.70;3.50;;;13.10;43.90;;;;;;5077180;28;20435;-71
2021/04/26 12:16:24;;;;;;;4.13;3.40;;;13.10;44.10;;;;;;5077786;28;20957;-71
2021/04/26 12:19:01;;;;;;;4.23;3.37;;;13.00;43.90;;;;;;5081113;28;20447;-69
2021/04/26 12:21:27;;;;;;;3.23;2.97;;;13.00;44.30;;;;;;5082316;28;20404;-70
2021/04/26 12:23:53;;;;;;;4.10;3.70;;;13.00;44.60;;;;;;5092904;28;20501;-71
2021/04/26 12:26:19;;;;;;;3.83;3.53;;;13.00;44.70;;;;;;5097252;28;20404;-72
2021/04/26 12:28:46;;;;;;;4.20;3.80;;;13.00;44.60;;;;;;5095523;28;20185;-71
2021/04/26 12:31:25;;;;;;;4.27;3.37;;;13.10;45.60;;;;;;5075015;28;20540;-71
2021/04/26 12:33:52;;;;;;;4.43;3.80;;;13.10;45.70;;;;;;5076165;28;20562;-71
2021/04/26 12:36:18;;;;;;;5.30;3.90;;;13.20;45.60;;;;;;5077077;28;20412;-70
2021/04/26 12:38:48;;;;;;;5.00;4.00;;;13.20;46.00;;;;;;5077026;28;20432;-71
2021/04/26 12:41:18;;;;;;;3.97;3.60;;;13.30;46.80;;;;;;5077377;28;20912;-71
2021/04/26 12:43:48;;;;;;;3.87;3.57;;;13.30;46.50;;;;;;5077001;28;20418;-71
2021/04/26 12:46:15;;;;;;;4.53;4.13;;;13.40;46.60;;;;;;5078072;28;20418;-71
2021/04/26 12:48:42;;;;;;;9.10;3.93;;;13.30;45.20;;;;;;5076468;28;20432;-71
2021/04/26 12:51:09;;;;;;;3.80;3.50;;;13.30;45.20;;;;;;5079629;28;20412;-71
2021/04/26 12:53:42;;;;;;;4.37;3.80;;;13.30;44.50;;;;;;5076149;28;20928;-71
2021/04/26 12:56:18;;;;;;;5.10;4.07;;;13.40;45.40;;;;;;5063521;28;20443;-71
2021/04/26 12:58:48;;;;;;;3.60;3.30;;;13.40;46.40;;;;;;5057812;28;20439;-70
2021/04/26 13:01:14;;;;;;;3.70;3.40;;;13.40;46.70;;;;;;5060055;28;20412;-70
2021/04/26 13:03:49;;;;;;;4.27;3.13;;;13.40;46.90;;;;;;5058978;28;20478;-70
2021/04/26 13:06:16;;;;;;;4.00;3.33;;;13.50;47.00;;;;;;5060064;28;20224;-70
2021/04/26 13:08:44;;;;;;;4.40;3.50;;;13.60;46.90;;;;;;5055769;28;20798;-70